Time;durP1;ratioP1;P1;durP2;ratioP2;P2;SDS_P1;SDS_P2;PMS_P1;PMS_P2;Temp;Humidity;BMP_temperature;BMP_pressure;BME280_temperature;BME280_humidity;BME280_pressure;Samples;Min_cycle;Max_cycle;Signal;HPM_P1;HPM_P2
2021/07/11 00:01:45;;;;;;;10.20;8.70;;;16.50;99.90;;;;;;4994945;28;20439;-75
2021/07/11 00:04:11;;;;;;;10.02;9.02;;;16.50;99.90;;;;;;4994744;28;20051;-75
2021/07/11 00:06:38;;;;;;;12.10;9.73;;;16.40;99.90;;;;;;4995234;28;20042;-75
2021/07/11 00:09:05;;;;;;;11.90;9.32;;;16.40;99.90;;;;;;4994217;28;20042;-74
2021/07/11 00:11:34;;;;;;;11.32;9.07;;;16.40;99.90;;;;;;4994801;28;20051;-74
2021/07/11 00:14:01;;;;;;;12.95;10.32;;;16.40;99.90;;;;;;4993822;28;20050;-73
2021/07/11 00:16:28;;;;;;;11.85;9.77;;;16.30;99.90;;;;;;4994033;28;20045;-73
2021/07/11 00:18:55;;;;;;;13.32;9.15;;;16.40;99.90;;;;;;4993914;28;20350;-74
2021/07/11 00:21:22;;;;;;;10.63;9.10;;;16.40;99.90;;;;;;4994618;28;20454;-74
2021/07/11 00:23:49;;;;;;;10.90;9.38;;;16.30;99.90;;;;;;4995620;28;20047;-75
2021/07/11 00:26:16;;;;;;;10.82;8.95;;;16.30;99.90;;;;;;4995768;28;20462;-75
2021/07/11 00:28:43;;;;;;;11.40;9.02;;;16.20;99.90;;;;;;4994951;28;20498;-74
2021/07/11 00:31:10;;;;;;;12.23;10.00;;;16.20;99.90;;;;;;4995154;28;20414;-75
2021/07/11 00:33:37;;;;;;;13.75;9.77;;;16.20;99.90;;;;;;4995211;28;20462;-74
2021/07/11 00:36:04;;;;;;;11.68;9.88;;;16.20;99.90;;;;;;4994877;28;20046;-75
2021/07/11 00:38:31;;;;;;;13.50;9.05;;;16.20;99.90;;;;;;4993754;28;20058;-74
2021/07/11 00:40:58;;;;;;;10.23;9.18;;;16.20;99.90;;;;;;4993688;28;20050;-73
2021/07/11 00:43:25;;;;;;;10.00;9.02;;;16.20;99.90;;;;;;4993153;28;20046;-73
2021/07/11 00:45:53;;;;;;;11.63;9.82;;;16.20;99.90;;;;;;4993744;28;20419;-72
2021/07/11 00:48:19;;;;;;;11.57;9.82;;;16.10;99.90;;;;;;4993384;28;20054;-74
2021/07/11 00:50:47;;;;;;;13.32;10.25;;;16.10;99.90;;;;;;4992805;28;20112;-75
2021/07/11 00:53:13;;;;;;;13.75;10.05;;;16.10;99.90;;;;;;4995101;28;20078;-75
2021/07/11 00:55:40;;;;;;;10.77;9.40;;;16.00;99.90;;;;;;4995055;28;20458;-75
2021/07/11 00:58:07;;;;;;;11.23;9.27;;;15.90;99.90;;;;;;4995173;28;20046;-75
2021/07/11 01:00:34;;;;;;;12.13;10.85;;;15.90;99.90;;;;;;4994630;28;20462;-75
2021/07/11 01:03:08;;;;;;;13.25;10.23;;;15.80;99.90;;;;;;4994600;28;20487;-75
2021/07/11 01:05:36;;;;;;;13.60;9.82;;;15.70;99.90;;;;;;4994598;28;20109;-75
2021/07/11 01:08:09;;;;;;;11.32;10.13;;;15.60;99.90;;;;;;4994920;28;20050;-75
2021/07/11 01:10:39;;;;;;;13.60;9.55;;;15.60;99.90;;;;;;4994336;28;20117;-74
2021/07/11 01:13:11;;;;;;;12.18;9.85;;;15.60;99.90;;;;;;4995208;28;20050;-74
2021/07/11 01:15:39;;;;;;;13.45;10.77;;;15.60;99.90;;;;;;4993662;28;20050;-74
2021/07/11 01:18:08;;;;;;;11.00;9.25;;;15.60;99.90;;;;;;4994272;28;20101;-73
2021/07/11 01:20:46;;;;;;;12.48;9.40;;;15.60;99.90;;;;;;4992330;28;20100;-73
2021/07/11 01:23:22;;;;;;;12.93;9.82;;;15.60;99.90;;;;;;4992931;28;20109;-73
2021/07/11 01:25:51;;;;;;;13.60;10.65;;;15.60;99.90;;;;;;4992404;28;20046;-74
2021/07/11 01:28:20;;;;;;;12.38;10.02;;;15.60;99.90;;;;;;4992612;28;20553;-74
2021/07/11 01:30:49;;;;;;;12.27;9.93;;;15.60;99.90;;;;;;4984871;28;20046;-73
2021/07/11 01:33:18;;;;;;;13.95;11.35;;;15.50;99.90;;;;;;4994046;28;20097;-73
2021/07/11 01:35:46;;;;;;;12.85;10.10;;;15.50;99.90;;;;;;4994434;28;20089;-75
2021/07/11 01:38:12;;;;;;;10.25;9.18;;;15.50;99.90;;;;;;4995161;28;20557;-75
2021/07/11 01:40:41;;;;;;;11.77;9.45;;;15.50;99.90;;;;;;4996100;28;20093;-74
2021/07/11 01:43:10;;;;;;;11.98;9.93;;;15.50;99.90;;;;;;4996834;28;20096;-75
2021/07/11 01:45:37;;;;;;;11.27;8.50;;;15.50;99.90;;;;;;4996666;28;20050;-75
2021/07/11 01:48:06;;;;;;;10.73;9.25;;;15.50;99.90;;;;;;4996432;28;20104;-74
2021/07/11 01:50:33;;;;;;;9.90;8.88;;;15.40;99.90;;;;;;4995750;28;20083;-75
2021/07/11 01:53:00;;;;;;;14.05;10.02;;;15.40;99.90;;;;;;4995558;28;20047;-74
2021/07/11 01:55:28;;;;;;;11.75;10.30;;;15.40;99.90;;;;;;4995095;28;20108;-74
2021/07/11 01:57:55;;;;;;;10.80;9.38;;;15.40;99.90;;;;;;4995588;28;20053;-75
2021/07/11 02:00:24;;;;;;;13.05;10.60;;;15.30;99.90;;;;;;4994832;28;20046;-75
2021/07/11 02:02:51;;;;;;;14.10;9.82;;;15.30;99.90;;;;;;4995241;28;20053;-78
2021/07/11 02:05:18;;;;;;;10.65;9.52;;;15.30;99.90;;;;;;4992387;28;20105;-74
2021/07/11 02:07:46;;;;;;;11.50;9.85;;;15.30;99.90;;;;;;4992140;28;20046;-73
2021/07/11 02:10:15;;;;;;;13.30;11.07;;;15.30;99.90;;;;;;4991233;28;20050;-73
2021/07/11 02:12:45;;;;;;;12.13;9.68;;;15.20;99.90;;;;;;4992068;28;20510;-73
2021/07/11 02:15:12;;;;;;;10.43;9.35;;;15.20;99.90;;;;;;4993303;28;20411;-73
2021/07/11 02:17:45;;;;;;;10.82;9.73;;;15.20;99.90;;;;;;4996734;28;20064;-75
2021/07/11 02:20:12;;;;;;;13.90;11.05;;;15.20;99.90;;;;;;4996662;28;20137;-74
2021/07/11 02:22:45;;;;;;;12.30;10.55;;;15.20;99.90;;;;;;4996040;28;20050;-74
2021/07/11 02:25:15;;;;;;;11.63;9.75;;;15.10;99.90;;;;;;4992589;28;20054;-75
2021/07/11 02:27:45;;;;;;;14.68;9.93;;;15.10;99.90;;;;;;4993683;28;20047;-74
2021/07/11 02:30:16;;;;;;;13.70;10.57;;;15.10;99.90;;;;;;4992743;28;20289;-74
2021/07/11 02:32:48;;;;;;;13.75;11.07;;;15.00;99.90;;;;;;4992862;28;20133;-74
2021/07/11 02:35:15;;;;;;;;;;;15.00;99.90;;;;;;4992158;28;20050;-73
2021/07/11 02:37:47;;;;;;;11.55;9.43;;;14.90;99.90;;;;;;4991791;28;19922;-74
2021/07/11 02:40:14;;;;;;;13.32;10.85;;;14.90;99.90;;;;;;4991345;28;20116;-73
2021/07/11 02:42:42;;;;;;;15.30;10.98;;;14.80;99.90;;;;;;4991328;28;20101;-74
2021/07/11 02:45:09;;;;;;;13.10;9.57;;;14.80;99.90;;;;;;4992830;28;20101;-73
2021/07/11 02:47:40;;;;;;;13.82;9.80;;;14.90;99.90;;;;;;4992880;28;20104;-74
2021/07/11 02:50:12;;;;;;;10.13;8.70;;;14.90;99.90;;;;;;4992648;28;20050;-74
2021/07/11 02:52:41;;;;;;;10.77;9.65;;;14.80;99.90;;;;;;4993625;28;20054;-73
2021/07/11 02:55:11;;;;;;;12.13;10.07;;;14.90;99.90;;;;;;4993127;28;20062;-75
2021/07/11 02:57:39;;;;;;;14.68;10.93;;;14.90;99.90;;;;;;4992987;28;20400;-73
2021/07/11 03:00:07;;;;;;;13.63;11.32;;;14.90;99.90;;;;;;4991096;28;20050;-72
2021/07/11 03:02:34;;;;;;;13.57;11.68;;;14.80;99.90;;;;;;4991611;28;20392;-73
2021/07/11 03:05:02;;;;;;;12.25;10.48;;;14.80;99.90;;;;;;4991457;28;20054;-73
2021/07/11 03:07:30;;;;;;;13.02;11.32;;;14.70;99.90;;;;;;4991986;28;20050;-73
2021/07/11 03:09:57;;;;;;;12.20;10.85;;;14.70;99.90;;;;;;4991086;28;20105;-72
2021/07/11 03:12:24;;;;;;;15.85;10.95;;;14.70;99.90;;;;;;4993407;28;20042;-73
2021/07/11 03:14:52;;;;;;;13.50;10.80;;;14.70;99.90;;;;;;4996165;28;20050;-73
2021/07/11 03:17:21;;;;;;;12.75;9.75;;;14.70;99.90;;;;;;4997310;28;20047;-74
2021/07/11 03:19:53;;;;;;;12.10;10.77;;;14.70;99.90;;;;;;4985962;28;20097;-74
2021/07/11 03:22:24;;;;;;;12.90;11.55;;;14.80;99.90;;;;;;4997660;28;20042;-74
2021/07/11 03:24:55;;;;;;;15.35;11.35;;;14.80;99.90;;;;;;4996618;28;20150;-75
2021/07/11 03:27:22;;;;;;;12.50;10.65;;;14.80;99.90;;;;;;4996905;28;20042;-75
2021/07/11 03:30:01;;;;;;;15.98;10.57;;;14.80;99.90;;;;;;4995559;28;20094;-75
2021/07/11 03:32:29;;;;;;;14.82;10.75;;;14.80;99.90;;;;;;4995640;28;20050;-74
2021/07/11 03:34:59;;;;;;;12.38;10.73;;;14.80;99.90;;;;;;4991649;28;20478;-75
2021/07/11 03:37:26;;;;;;;12.65;10.05;;;14.90;99.90;;;;;;4996128;28;20499;-74
2021/07/11 03:39:55;;;;;;;15.52;11.02;;;15.00;99.90;;;;;;4995117;28;20047;-74
2021/07/11 03:42:25;;;;;;;13.07;10.88;;;15.00;99.90;;;;;;4995183;28;20042;-73
2021/07/11 03:44:58;;;;;;;12.70;10.43;;;15.10;99.90;;;;;;4994953;28;20103;-72
2021/07/11 03:47:29;;;;;;;13.73;11.30;;;15.20;99.90;;;;;;4995272;28;20061;-74
2021/07/11 03:49:56;;;;;;;15.40;10.63;;;15.20;99.90;;;;;;4994288;28;20046;-73
2021/07/11 03:52:27;;;;;;;13.77;10.27;;;15.30;99.90;;;;;;4994829;28;20494;-73
2021/07/11 03:54:55;;;;;;;12.10;10.55;;;15.30;99.90;;;;;;4976840;28;20443;-74
2021/07/11 03:57:25;;;;;;;13.30;10.10;;;15.40;99.90;;;;;;4995828;28;20127;-74
2021/07/11 03:59:52;;;;;;;20.75;11.15;;;15.50;99.90;;;;;;4994001;28;20046;-73
2021/07/11 04:02:19;;;;;;;11.30;10.15;;;15.50;99.90;;;;;;4994402;28;20121;-73
2021/07/11 04:04:47;;;;;;;12.48;11.15;;;15.40;99.90;;;;;;4994414;28;20050;-73
2021/07/11 04:07:19;;;;;;;11.93;9.32;;;15.50;99.90;;;;;;4994428;28;20051;-73
2021/07/11 04:09:46;;;;;;;;;;;15.60;99.90;;;;;;4995183;28;20054;-75
2021/07/11 04:12:14;;;;;;;10.77;9.73;;;15.60;99.90;;;;;;4995767;28;19926;-74
2021/07/11 04:14:42;;;;;;;13.00;10.18;;;15.70;99.90;;;;;;4995831;28;20089;-75
2021/07/11 04:17:10;;;;;;;12.88;10.45;;;15.80;99.90;;;;;;4995718;28;20046;-75
2021/07/11 04:19:41;;;;;;;15.20;11.43;;;15.90;99.90;;;;;;4995182;28;20457;-75
2021/07/11 04:22:10;;;;;;;14.73;11.90;;;15.90;99.90;;;;;;4995555;28;20469;-75
2021/07/11 04:24:38;;;;;;;16.27;11.60;;;16.10;99.90;;;;;;4994900;28;20321;-75
2021/07/11 04:27:06;;;;;;;13.40;10.05;;;16.20;99.90;;;;;;4994931;28;20046;-75
2021/07/11 04:29:34;;;;;;;13.50;9.77;;;16.30;99.90;;;;;;4995613;28;20066;-75
2021/07/11 04:32:01;;;;;;;11.05;9.82;;;16.40;99.90;;;;;;4995475;28;20046;-75
2021/07/11 04:34:29;;;;;;;11.23;9.70;;;16.50;99.90;;;;;;4995093;28;20069;-75
2021/07/11 04:36:58;;;;;;;11.55;9.63;;;16.70;99.90;;;;;;4995266;28;20054;-76
2021/07/11 04:39:25;;;;;;;11.32;10.23;;;16.80;99.90;;;;;;4994258;28;20050;-74
2021/07/11 04:41:51;;;;;;;12.27;9.55;;;17.00;99.90;;;;;;4994785;28;20046;-74
2021/07/11 04:44:19;;;;;;;9.95;8.80;;;17.10;99.90;;;;;;4995112;28;20169;-75
2021/07/11 04:46:47;;;;;;;16.25;9.55;;;17.30;99.90;;;;;;4988712;28;20045;-74
2021/07/11 04:49:13;;;;;;;13.25;9.32;;;17.40;99.90;;;;;;4994366;28;20105;-74
2021/07/11 04:51:40;;;;;;;11.10;9.25;;;17.60;99.90;;;;;;4994674;28;20050;-74
2021/07/11 04:54:08;;;;;;;10.32;8.93;;;17.70;99.90;;;;;;4993733;28;20054;-74
2021/07/11 04:56:36;;;;;;;12.07;9.13;;;17.80;99.90;;;;;;4993848;28;20050;-73
2021/07/11 04:59:03;;;;;;;10.55;9.10;;;17.90;99.90;;;;;;4992787;28;20046;-74
2021/07/11 05:01:29;;;;;;;9.30;8.40;;;18.00;99.90;;;;;;4993219;28;20050;-74
2021/07/11 05:03:57;;;;;;;9.82;8.90;;;18.10;99.90;;;;;;4993605;28;20042;-74
2021/07/11 05:06:24;;;;;;;9.25;8.32;;;18.30;99.90;;;;;;4993436;28;20043;-73
2021/07/11 05:08:51;;;;;;;8.60;7.80;;;18.40;99.90;;;;;;4993320;28;20073;-73
2021/07/11 05:11:17;;;;;;;9.30;8.40;;;18.40;99.90;;;;;;4993592;28;20058;-74
2021/07/11 05:13:44;;;;;;;9.60;8.68;;;18.60;99.90;;;;;;4993083;28;20503;-74
2021/07/11 05:16:11;;;;;;;8.63;7.75;;;18.80;99.90;;;;;;4992812;28;20042;-74
2021/07/11 05:18:37;;;;;;;9.50;8.60;;;19.00;99.90;;;;;;4992823;28;20050;-74
2021/07/11 05:21:05;;;;;;;10.05;9.02;;;19.20;99.90;;;;;;4993483;28;20046;-74
2021/07/11 05:23:32;;;;;;;9.50;8.50;;;19.30;99.90;;;;;;4993816;28;20054;-75
2021/07/11 05:25:59;;;;;;;8.93;7.53;;;19.50;99.90;;;;;;4993627;28;20046;-75
2021/07/11 05:28:26;;;;;;;10.07;8.05;;;19.60;99.90;;;;;;4993042;28;20077;-75
2021/07/11 05:30:53;;;;;;;8.82;7.93;;;19.60;99.90;;;;;;4993450;28;20050;-75
2021/07/11 05:33:19;;;;;;;8.63;7.72;;;19.60;99.90;;;;;;4993525;28;20046;-73
2021/07/11 05:35:46;;;;;;;10.15;7.57;;;19.70;99.90;;;;;;4993949;28;20072;-76
2021/07/11 05:38:14;;;;;;;11.82;8.02;;;19.70;99.90;;;;;;4993432;28;20077;-75
2021/07/11 05:40:41;;;;;;;8.80;8.10;;;19.80;99.90;;;;;;4993572;28;20100;-75
2021/07/11 05:43:07;;;;;;;9.98;7.93;;;19.80;99.90;;;;;;4993427;28;20502;-75
2021/07/11 05:45:34;;;;;;;7.68;6.97;;;19.90;99.90;;;;;;4993630;28;20412;-75
2021/07/11 05:48:01;;;;;;;10.65;7.38;;;19.80;99.90;;;;;;4994237;28;20046;-74
2021/07/11 05:50:27;;;;;;;7.82;7.07;;;19.90;99.90;;;;;;4993096;28;20050;-74
2021/07/11 05:52:54;;;;;;;8.15;6.95;;;20.10;99.90;;;;;;4992696;28;20465;-73
2021/07/11 05:55:22;;;;;;;8.25;7.45;;;20.20;99.90;;;;;;4992319;28;20085;-74
2021/07/11 05:57:48;;;;;;;7.90;6.47;;;20.20;99.90;;;;;;4992474;28;20116;-74
2021/07/11 06:00:16;;;;;;;7.88;7.07;;;20.30;99.90;;;;;;4991977;28;20038;-74
2021/07/11 06:02:43;;;;;;;7.47;6.78;;;20.50;99.90;;;;;;4992917;28;20463;-73
2021/07/11 06:05:10;;;;;;;7.13;6.43;;;20.60;99.90;;;;;;4992714;28;20081;-74
2021/07/11 06:07:37;;;;;;;7.22;6.63;;;20.70;99.90;;;;;;4993726;28;20050;-74
2021/07/11 06:10:05;;;;;;;11.98;9.73;;;20.80;99.90;;;;;;4991824;28;20042;-76
2021/07/11 06:12:33;;;;;;;8.10;6.88;;;20.90;99.90;;;;;;4992636;28;20533;-74
2021/07/11 06:14:59;;;;;;;9.88;7.55;;;21.00;99.90;;;;;;4993527;28;20047;-76
2021/07/11 06:17:27;;;;;;;8.20;6.30;;;21.20;99.90;;;;;;4993241;28;20046;-76
2021/07/11 06:19:53;;;;;;;8.27;6.90;;;21.20;99.90;;;;;;4992481;28;20065;-75
2021/07/11 06:22:20;;;;;;;8.05;6.93;;;21.30;99.90;;;;;;4992393;28;20285;-75
2021/07/11 06:24:47;;;;;;;8.00;7.20;;;21.50;99.90;;;;;;4991910;28;20450;-73
2021/07/11 06:27:13;;;;;;;6.32;5.63;;;21.60;99.90;;;;;;4992438;28;20104;-74
2021/07/11 06:29:41;;;;;;;10.18;7.07;;;21.80;99.90;;;;;;4991685;28;20080;-74
2021/07/11 06:32:08;;;;;;;6.22;5.63;;;22.10;99.90;;;;;;4975080;28;20105;-74
2021/07/11 06:34:35;;;;;;;7.80;6.78;;;22.10;99.90;;;;;;4992762;28;20047;-75
2021/07/11 06:37:01;;;;;;;7.20;6.25;;;22.40;99.90;;;;;;4992548;28;20081;-75
2021/07/11 06:39:28;;;;;;;5.57;5.05;;;22.50;99.90;;;;;;4991406;28;20047;-74
2021/07/11 06:41:55;;;;;;;8.45;5.93;;;22.50;99.90;;;;;;4992253;28;20042;-74
2021/07/11 06:44:21;;;;;;;6.32;5.72;;;22.50;99.90;;;;;;4992371;28;20177;-74
2021/07/11 06:46:51;;;;;;;7.20;6.60;;;22.60;99.90;;;;;;4992662;28;20120;-75
2021/07/11 06:49:18;;;;;;;6.90;6.28;;;22.80;99.90;;;;;;4995904;28;20050;-75
2021/07/11 06:51:45;;;;;;;6.43;5.15;;;23.30;99.90;;;;;;4997238;28;20483;-75
2021/07/11 06:54:11;;;;;;;5.28;4.88;;;23.70;99.90;;;;;;4997283;28;20097;-76
2021/07/11 06:56:38;;;;;;;5.28;4.82;;;23.80;99.90;;;;;;4997317;28;20088;-75
2021/07/11 06:59:05;;;;;;;6.28;5.60;;;23.90;99.90;;;;;;4997206;28;20057;-76
2021/07/11 07:01:32;;;;;;;6.20;4.80;;;24.20;99.90;;;;;;4999120;28;20499;-74
2021/07/11 07:04:00;;;;;;;7.65;6.18;;;24.50;99.90;;;;;;4997716;28;20569;-75
2021/07/11 07:06:26;;;;;;;4.78;4.38;;;24.80;99.90;;;;;;5000422;28;20061;-75
2021/07/11 07:08:53;;;;;;;4.88;4.38;;;25.00;99.90;;;;;;5000461;28;20043;-75
2021/07/11 07:11:20;;;;;;;6.75;5.95;;;25.10;99.90;;;;;;4998211;28;20081;-75
2021/07/11 07:13:46;;;;;;;5.47;4.80;;;25.60;99.90;;;;;;4996211;28;20531;-75
2021/07/11 07:16:13;;;;;;;7.03;4.80;;;25.90;97.70;;;;;;4996322;28;20125;-75
2021/07/11 07:18:39;;;;;;;4.40;4.10;;;26.10;96.20;;;;;;4994860;28;20054;-74
2021/07/11 07:21:07;;;;;;;5.65;4.60;;;25.80;95.10;;;;;;4995173;28;20050;-74
2021/07/11 07:23:34;;;;;;;5.28;4.50;;;25.50;95.80;;;;;;4979378;28;20043;-74
2021/07/11 07:26:00;;;;;;;4.55;4.20;;;25.70;96.60;;;;;;4995710;28;20100;-74
2021/07/11 07:28:27;;;;;;;4.10;3.78;;;25.80;95.60;;;;;;4994630;28;20054;-73
2021/07/11 07:30:54;;;;;;;4.78;4.38;;;26.00;95.60;;;;;;4995933;28;20047;-75
2021/07/11 07:33:20;;;;;;;6.63;4.63;;;26.30;94.30;;;;;;4995407;28;20051;-75
2021/07/11 07:35:47;;;;;;;4.18;3.80;;;26.40;94.70;;;;;;4995206;28;20129;-75
2021/07/11 07:38:15;;;;;;;4.15;3.85;;;26.40;92.80;;;;;;4996368;28;20050;-76
2021/07/11 07:40:42;;;;;;;3.72;3.42;;;26.20;92.10;;;;;;4995369;28;20471;-75
2021/07/11 07:43:13;;;;;;;4.45;3.42;;;26.20;92.20;;;;;;4995745;28;20046;-75
2021/07/11 07:45:40;;;;;;;3.47;3.28;;;26.20;91.60;;;;;;4995795;28;20108;-75
2021/07/11 07:48:08;;;;;;;3.55;3.25;;;26.30;92.00;;;;;;4997327;28;20042;-75
2021/07/11 07:50:34;;;;;;;3.92;3.63;;;26.60;91.30;;;;;;5003157;28;20084;-76
2021/07/11 07:53:01;;;;;;;4.80;4.22;;;26.70;91.30;;;;;;4998142;28;20046;-74
2021/07/11 07:55:30;;;;;;;3.88;3.58;;;27.10;91.20;;;;;;4995270;28;20046;-76
2021/07/11 07:57:57;;;;;;;3.88;3.58;;;27.30;88.80;;;;;;4995221;28;20094;-76
2021/07/11 08:00:24;;;;;;;3.33;3.13;;;27.20;86.50;;;;;;4993226;28;20109;-74
2021/07/11 08:02:52;;;;;;;3.25;2.95;;;27.20;84.90;;;;;;4995005;28;20046;-75
2021/07/11 08:05:20;;;;;;;3.78;3.47;;;27.20;86.10;;;;;;4994781;28;20046;-76
2021/07/11 08:07:47;;;;;;;3.03;2.83;;;27.40;84.20;;;;;;4994666;28;20089;-76
2021/07/11 08:10:15;;;;;;;3.10;2.90;;;27.40;82.90;;;;;;4994241;28;20100;-75
2021/07/11 08:12:43;;;;;;;3.08;2.88;;;27.50;83.20;;;;;;4995007;28;20133;-75
2021/07/11 08:15:15;;;;;;;4.50;3.90;;;27.80;82.40;;;;;;4994747;28;20050;-75
2021/07/11 08:17:42;;;;;;;3.53;3.22;;;27.90;78.30;;;;;;4995192;28;20050;-75
2021/07/11 08:20:10;;;;;;;4.72;3.42;;;27.80;76.70;;;;;;4993792;28;20478;-75
2021/07/11 08:22:37;;;;;;;3.28;3.08;;;28.10;77.00;;;;;;4994722;28;20132;-76
2021/07/11 08:25:04;;;;;;;2.65;2.45;;;27.80;74.50;;;;;;4994734;28;20117;-76
2021/07/11 08:27:31;;;;;;;2.85;2.65;;;27.50;75.50;;;;;;4995257;28;20042;-75
2021/07/11 08:29:59;;;;;;;4.70;3.95;;;27.30;75.10;;;;;;4994021;28;20105;-75
2021/07/11 08:32:25;;;;;;;3.67;2.83;;;27.30;77.00;;;;;;4994160;28;20557;-76
2021/07/11 08:34:52;;;;;;;5.65;3.22;;;27.50;73.20;;;;;;4994395;28;20030;-76
2021/07/11 08:37:19;;;;;;;2.90;2.70;;;27.60;71.70;;;;;;4994534;28;20749;-76
2021/07/11 08:39:45;;;;;;;2.83;2.63;;;27.90;72.20;;;;;;4993747;28;20190;-75
2021/07/11 08:42:12;;;;;;;3.53;2.95;;;28.20;70.50;;;;;;4994319;28;20047;-75
2021/07/11 08:44:38;;;;;;;3.05;2.85;;;28.80;72.30;;;;;;4994558;28;20454;-75
2021/07/11 08:47:06;;;;;;;3.22;2.40;;;28.60;66.40;;;;;;4994175;28;20046;-74
2021/07/11 08:49:33;;;;;;;2.95;2.75;;;28.50;68.80;;;;;;4993240;28;20491;-75
2021/07/11 08:52:01;;;;;;;3.30;3.00;;;28.80;65.80;;;;;;4994156;28;20050;-75
2021/07/11 08:54:28;;;;;;;5.38;2.55;;;29.00;63.80;;;;;;4993563;28;20046;-75
2021/07/11 08:56:58;;;;;;;3.45;3.15;;;29.50;64.20;;;;;;4993891;28;20070;-73
2021/07/11 08:59:27;;;;;;;2.92;2.72;;;30.00;64.10;;;;;;4993246;28;20454;-75
2021/07/11 09:01:53;;;;;;;3.00;2.67;;;29.80;62.30;;;;;;4993772;28;20046;-75
2021/07/11 09:04:21;;;;;;;3.95;3.60;;;29.80;61.40;;;;;;4993869;28;20046;-75
2021/07/11 09:06:52;;;;;;;5.40;2.90;;;30.10;62.50;;;;;;4993868;28;20046;-75
2021/07/11 09:09:25;;;;;;;3.67;3.38;;;30.20;61.20;;;;;;4993723;28;20462;-75
2021/07/11 09:11:54;;;;;;;3.75;3.40;;;30.80;61.20;;;;;;4993641;28;20054;-76
2021/07/11 09:14:22;;;;;;;4.15;3.38;;;31.00;61.70;;;;;;4993812;28;20056;-76
2021/07/11 09:16:49;;;;;;;3.00;2.80;;;31.60;59.50;;;;;;4993051;28;20081;-74
2021/07/11 09:19:26;;;;;;;2.92;2.72;;;30.90;58.80;;;;;;4992584;28;20050;-74
2021/07/11 09:21:55;;;;;;;3.78;2.58;;;30.20;60.10;;;;;;4993097;28;20050;-75
2021/07/11 09:24:22;;;;;;;3.47;3.17;;;30.40;60.00;;;;;;4994176;28;20057;-75
2021/07/11 09:26:50;;;;;;;2.95;2.75;;;30.60;60.10;;;;;;4994244;28;20308;-76
2021/07/11 09:29:25;;;;;;;3.47;3.17;;;31.00;58.60;;;;;;4993200;28;20141;-71
2021/07/11 09:31:51;;;;;;;2.35;2.25;;;31.50;57.70;;;;;;4993617;28;20112;-70
2021/07/11 09:34:22;;;;;;;2.83;2.63;;;31.60;54.50;;;;;;4993573;28;20419;-70
2021/07/11 09:37:03;;;;;;;4.07;3.70;;;31.80;54.90;;;;;;4993729;28;20487;-70
2021/07/11 09:39:30;;;;;;;5.15;3.38;;;32.40;54.80;;;;;;4970975;28;20058;-70
2021/07/11 09:41:56;;;;;;;3.33;3.03;;;32.90;53.20;;;;;;4971158;28;20043;-70
2021/07/11 09:44:23;;;;;;;4.28;3.88;;;32.90;51.60;;;;;;4971042;28;20622;-69
2021/07/11 09:46:50;;;;;;;4.00;3.17;;;32.60;52.60;;;;;;4970902;28;20051;-69
2021/07/11 09:49:17;;;;;;;4.60;4.13;;;33.00;51.90;;;;;;4970355;28;20211;-69
2021/07/11 09:51:43;;;;;;;2.95;2.75;;;33.10;50.60;;;;;;4971018;28;20046;-68
2021/07/11 09:54:13;;;;;;;3.65;3.35;;;32.60;50.90;;;;;;4970763;28;20083;-69
2021/07/11 09:56:42;;;;;;;2.85;2.58;;;32.60;52.10;;;;;;4972439;28;20039;-69
2021/07/11 09:59:10;;;;;;;2.88;2.67;;;32.70;48.90;;;;;;4991733;28;20129;-70
2021/07/11 10:01:39;;;;;;;3.08;2.78;;;32.40;50.30;;;;;;4992462;28;20078;-69
2021/07/11 10:04:07;;;;;;;3.90;2.30;;;31.40;52.10;;;;;;4992569;28;20592;-69
2021/07/11 10:06:35;;;;;;;2.38;2.22;;;31.30;51.70;;;;;;4992180;28;20046;-71
2021/07/11 10:09:03;;;;;;;2.67;2.58;;;31.20;53.60;;;;;;4993456;28;20113;-69
2021/07/11 10:11:31;;;;;;;3.03;2.83;;;31.90;52.60;;;;;;4992538;28;20070;-69
2021/07/11 10:13:58;;;;;;;2.97;2.45;;;32.00;52.00;;;;;;4994439;28;20043;-70
2021/07/11 10:16:25;;;;;;;3.45;2.88;;;32.10;51.50;;;;;;4992162;28;20108;-70
2021/07/11 10:18:56;;;;;;;2.50;2.30;;;31.80;53.50;;;;;;4991741;28;20054;-70
2021/07/11 10:21:28;;;;;;;4.07;3.58;;;32.10;52.00;;;;;;4992129;28;20121;-70
2021/07/11 10:23:55;;;;;;;7.85;5.90;;;32.80;52.70;;;;;;4993458;28;20057;-72
2021/07/11 10:26:21;;;;;;;3.53;3.17;;;33.70;51.70;;;;;;4994462;28;20050;-70
2021/07/11 10:28:51;;;;;;;3.92;2.78;;;34.70;49.50;;;;;;4992990;28;20046;-71
2021/07/11 10:31:19;;;;;;;2.95;2.67;;;33.70;48.90;;;;;;4992639;28;20471;-71
2021/07/11 10:33:47;;;;;;;3.90;3.60;;;33.50;49.40;;;;;;4992393;28;20097;-73
2021/07/11 10:36:14;;;;;;;5.60;5.00;;;33.90;49.40;;;;;;4992439;28;20454;-70
2021/07/11 10:38:50;;;;;;;4.05;3.75;;;34.70;51.00;;;;;;4991651;28;20452;-69
2021/07/11 10:41:18;;;;;;;2.67;2.50;;;35.30;48.30;;;;;;4992041;28;20047;-71
2021/07/11 10:43:59;;;;;;;2.97;2.78;;;34.70;47.50;;;;;;4992063;28;20042;-69
2021/07/11 10:46:32;;;;;;;3.17;2.80;;;33.80;46.40;;;;;;4992098;28;20046;-69
2021/07/11 10:49:09;;;;;;;3.00;2.70;;;33.60;47.60;;;;;;4991702;28;20046;-71
2021/07/11 10:51:41;;;;;;;3.65;3.40;;;32.70;48.90;;;;;;4992701;28;20117;-70
2021/07/11 10:54:18;;;;;;;3.10;2.90;;;32.60;49.30;;;;;;4992954;28;20047;-69
2021/07/11 10:56:45;;;;;;;2.75;2.45;;;32.90;50.40;;;;;;4992109;28;20491;-69
2021/07/11 10:59:11;;;;;;;9.02;7.35;;;32.90;50.00;;;;;;4991028;28;20241;-70
2021/07/11 11:01:39;;;;;;;3.92;3.63;;;34.00;49.90;;;;;;4983072;28;20046;-69
2021/07/11 11:04:16;;;;;;;6.13;5.63;;;34.90;48.10;;;;;;4972381;28;20117;-75
2021/07/11 11:06:43;;;;;;;4.13;3.72;;;34.90;46.90;;;;;;4972455;28;20110;-69
2021/07/11 11:09:10;;;;;;;3.75;2.53;;;35.50;47.70;;;;;;4978922;28;20069;-70
2021/07/11 11:11:36;;;;;;;2.83;2.63;;;35.90;46.20;;;;;;4991648;28;20077;-69
2021/07/11 11:14:05;;;;;;;4.90;2.92;;;35.50;45.40;;;;;;4991505;28;20093;-68
2021/07/11 11:16:45;;;;;;;3.00;2.80;;;34.90;46.70;;;;;;4991606;28;20042;-70
2021/07/11 11:19:15;;;;;;;2.95;2.75;;;33.70;46.10;;;;;;4991082;28;20538;-70
2021/07/11 11:21:42;;;;;;;2.75;2.55;;;33.20;48.90;;;;;;4991486;28;20100;-70
2021/07/11 11:24:10;;;;;;;2.85;2.35;;;33.00;47.60;;;;;;4992386;28;20047;-70
2021/07/11 11:26:37;;;;;;;2.28;2.08;;;32.30;48.00;;;;;;4991963;28;20047;-71
2021/07/11 11:29:06;;;;;;;2.28;2.10;;;32.30;48.30;;;;;;4991409;28;20043;-70
2021/07/11 11:31:34;;;;;;;2.40;2.30;;;32.30;48.30;;;;;;4992378;28;20396;-70
2021/07/11 11:34:04;;;;;;;3.25;2.70;;;32.40;49.60;;;;;;4994288;28;20043;-71
2021/07/11 11:36:35;;;;;;;3.03;2.80;;;32.70;47.80;;;;;;4995147;28;20526;-69
2021/07/11 11:39:05;;;;;;;3.33;3.03;;;32.90;50.50;;;;;;4995413;28;20458;-69
2021/07/11 11:41:31;;;;;;;5.22;4.38;;;33.30;48.90;;;;;;4995878;28;20058;-70
2021/07/11 11:44:15;;;;;;;3.72;3.35;;;33.60;49.00;;;;;;4995966;28;20104;-70
2021/07/11 11:46:43;;;;;;;2.10;2.00;;;33.70;47.40;;;;;;4996216;28;20100;-69
2021/07/11 11:49:14;;;;;;;3.10;2.80;;;33.00;47.20;;;;;;4994720;28;20050;-71
2021/07/11 11:51:45;;;;;;;5.13;4.68;;;32.80;49.50;;;;;;4976145;28;20050;-70
2021/07/11 11:54:12;;;;;;;3.17;2.95;;;33.70;49.10;;;;;;4993193;28;20047;-71
2021/07/11 11:56:41;;;;;;;4.22;3.83;;;33.80;46.80;;;;;;4995870;28;20047;-71
2021/07/11 11:59:08;;;;;;;2.60;2.40;;;33.30;47.10;;;;;;4995264;28;20051;-71
2021/07/11 12:01:37;;;;;;;2.70;2.50;;;33.60;45.70;;;;;;4996410;28;20461;-69
2021/07/11 12:04:16;;;;;;;2.20;2.10;;;33.40;45.70;;;;;;4996149;28;20081;-70
2021/07/11 12:06:47;;;;;;;2.92;2.72;;;33.30;46.10;;;;;;4994834;28;20073;-69
2021/07/11 12:09:15;;;;;;;3.30;3.10;;;33.60;46.30;;;;;;4994362;28;20053;-69
2021/07/11 12:11:42;;;;;;;3.08;2.80;;;34.00;47.70;;;;;;4994774;28;20050;-69
2021/07/11 12:14:11;;;;;;;2.70;2.50;;;34.10;46.40;;;;;;4994679;28;20042;-70
2021/07/11 12:16:39;;;;;;;2.80;2.53;;;34.50;46.20;;;;;;4995292;28;20054;-77
2021/07/11 12:19:08;;;;;;;2.58;2.38;;;35.00;45.10;;;;;;4993843;28;20050;-69
2021/07/11 12:21:44;;;;;;;3.42;2.70;;;34.70;45.50;;;;;;4995372;28;20046;-69
2021/07/11 12:24:13;;;;;;;1.90;1.80;;;34.40;44.80;;;;;;4994567;28;20057;-70
2021/07/11 12:26:41;;;;;;;4.30;3.27;;;34.30;44.90;;;;;;4994436;28;20138;-69
2021/07/11 12:29:09;;;;;;;2.78;2.58;;;34.20;45.50;;;;;;4993718;28;20465;-70
2021/07/11 12:31:37;;;;;;;2.47;2.25;;;34.40;47.00;;;;;;4994256;28;20470;-73
2021/07/11 12:34:05;;;;;;;3.60;3.25;;;34.20;45.20;;;;;;4994631;28;20046;-68
2021/07/11 12:36:34;;;;;;;4.03;3.50;;;34.50;44.70;;;;;;4994928;28;20466;-70
2021/07/11 12:39:14;;;;;;;4.45;3.90;;;34.30;44.40;;;;;;4993917;28;20078;-69
2021/07/11 12:41:41;;;;;;;3.03;2.83;;;34.40;45.60;;;;;;4994837;28;20054;-69
2021/07/11 12:44:08;;;;;;;3.65;3.35;;;34.40;44.20;;;;;;4995146;28;20050;-69
2021/07/11 12:46:35;;;;;;;4.22;3.92;;;33.80;46.30;;;;;;4993686;28;20050;-69